Time;durP1;ratioP1;P1;durP2;ratioP2;P2;SDS_P1;SDS_P2;PMS_P1;PMS_P2;Temp;Humidity;BMP_temperature;BMP_pressure;BME280_temperature;BME280_humidity;BME280_pressure;Samples;Min_cycle;Max_cycle;Signal;HPM_P1;HPM_P2
2022/12/28 00:01:26;;;;;;;3.83;2.20;;;7.50;99.90;;;;;;4992900;28;20038;-67
2022/12/28 00:03:53;;;;;;;11.80;2.20;;;7.50;99.90;;;;;;4993065;28;20037;-67
2022/12/28 00:06:21;;;;;;;6.15;2.10;;;7.50;99.90;;;;;;4992894;28;20026;-66
2022/12/28 00:08:47;;;;;;;5.45;3.50;;;7.50;99.90;;;;;;4992886;28;20030;-66
2022/12/28 00:11:15;;;;;;;4.22;2.40;;;7.60;99.90;;;;;;4992797;28;20045;-66
2022/12/28 00:13:41;;;;;;;2.60;1.83;;;7.60;99.90;;;;;;4992750;28;20059;-65
2022/12/28 00:16:08;;;;;;;4.68;3.40;;;7.60;99.90;;;;;;4992722;28;20472;-66
2022/12/28 00:18:35;;;;;;;3.47;2.28;;;7.70;99.90;;;;;;4992809;28;20033;-66
2022/12/28 00:21:02;;;;;;;3.67;1.52;;;7.80;99.90;;;;;;4993437;28;20034;-65
2022/12/28 00:23:29;;;;;;;4.40;3.05;;;7.70;99.90;;;;;;4996135;28;20022;-65
2022/12/28 00:26:03;;;;;;;4.03;1.42;;;7.70;99.90;;;;;;4996244;28;20035;-66
2022/12/28 00:28:29;;;;;;;1.20;0.93;;;7.70;99.90;;;;;;4996345;28;20109;-66
2022/12/28 00:30:56;;;;;;;5.97;1.75;;;7.70;99.90;;;;;;4995144;28;20110;-67
2022/12/28 00:33:23;;;;;;;4.45;2.38;;;7.70;99.90;;;;;;4996148;28;20027;-66
2022/12/28 00:35:53;;;;;;;3.30;2.05;;;7.80;99.90;;;;;;4996309;28;20033;-66
2022/12/28 00:38:19;;;;;;;2.80;1.70;;;7.90;99.90;;;;;;4996386;28;20022;-66
2022/12/28 00:40:45;;;;;;;5.88;2.50;;;7.90;99.90;;;;;;4994382;28;20034;-65
2022/12/28 00:43:11;;;;;;;5.28;2.65;;;7.90;99.90;;;;;;4996113;28;20088;-66
2022/12/28 00:45:36;;;;;;;14.82;3.22;;;8.00;99.90;;;;;;4995950;28;20042;-66
2022/12/28 00:48:02;;;;;;;6.22;3.03;;;8.00;99.90;;;;;;4994773;28;20015;-65
2022/12/28 00:50:30;;;;;;;4.75;3.35;;;8.00;99.90;;;;;;4995732;28;20189;-66
2022/12/28 00:52:56;;;;;;;4.90;2.78;;;8.00;99.90;;;;;;4994691;28;20481;-66
2022/12/28 00:55:21;;;;;;;3.78;2.33;;;7.90;99.90;;;;;;4995712;28;20041;-67
2022/12/28 00:57:47;;;;;;;2.47;2.20;;;7.90;99.90;;;;;;4995908;28;20037;-66
2022/12/28 01:00:14;;;;;;;6.88;3.08;;;8.00;99.90;;;;;;4994481;28;20042;-66
2022/12/28 01:02:39;;;;;;;6.00;2.63;;;8.00;99.90;;;;;;4993788;28;20024;-66
2022/12/28 01:05:06;;;;;;;7.97;3.97;;;8.10;99.90;;;;;;4995573;28;20382;-66
2022/12/28 01:07:33;;;;;;;4.68;1.92;;;8.00;99.90;;;;;;4994215;28;20494;-69
2022/12/28 01:10:00;;;;;;;8.88;4.13;;;8.00;99.90;;;;;;4994832;28;20026;-68
2022/12/28 01:12:28;;;;;;;7.93;3.65;;;8.10;99.90;;;;;;4994457;28;20022;-67
2022/12/28 01:14:54;;;;;;;3.30;2.53;;;8.10;99.90;;;;;;4978088;28;20026;-65
2022/12/28 01:17:20;;;;;;;6.20;2.88;;;8.10;99.90;;;;;;4995557;28;20030;-65
2022/12/28 01:19:46;;;;;;;7.50;4.47;;;8.10;99.90;;;;;;4995085;28;20027;-66
2022/12/28 01:22:13;;;;;;;3.58;2.15;;;8.10;99.90;;;;;;4977810;28;20088;-66
2022/12/28 01:24:39;;;;;;;4.63;1.75;;;8.10;99.90;;;;;;4993990;28;20037;-68
2022/12/28 01:27:05;;;;;;;4.93;2.92;;;8.10;99.90;;;;;;4994248;28;20030;-66
2022/12/28 01:29:31;;;;;;;1.88;1.25;;;8.00;99.90;;;;;;4993951;28;20026;-68
2022/12/28 01:31:58;;;;;;;4.38;2.53;;;8.00;99.90;;;;;;4976460;28;20065;-66
2022/12/28 01:34:24;;;;;;;6.28;2.55;;;8.00;99.90;;;;;;4992022;28;20042;-67
2022/12/28 01:36:50;;;;;;;6.03;2.47;;;8.10;99.90;;;;;;4994243;28;20387;-66
2022/12/28 01:39:16;;;;;;;6.43;2.85;;;8.00;99.90;;;;;;4993862;28;20046;-69
2022/12/28 01:41:42;;;;;;;5.07;3.15;;;8.00;99.90;;;;;;4992798;28;20026;-65
2022/12/28 01:44:09;;;;;;;6.65;3.03;;;8.00;99.90;;;;;;4992776;28;20023;-66
2022/12/28 01:46:40;;;;;;;5.28;3.53;;;8.00;99.90;;;;;;4993768;28;20089;-66
2022/12/28 01:49:15;;;;;;;2.25;1.25;;;8.10;99.90;;;;;;4994202;28;20134;-69
2022/12/28 01:51:52;;;;;;;5.90;3.85;;;8.10;99.90;;;;;;4993779;28;20088;-65
2022/12/28 01:54:21;;;;;;;9.20;3.90;;;8.10;99.90;;;;;;4992500;28;20073;-66
2022/12/28 01:56:47;;;;;;;4.85;3.08;;;8.10;99.90;;;;;;4993769;28;20088;-65
2022/12/28 01:59:16;;;;;;;5.43;2.35;;;8.10;99.90;;;;;;4992441;28;20117;-65
2022/12/28 02:01:42;;;;;;;4.13;2.90;;;8.10;99.90;;;;;;4993528;28;20042;-66
2022/12/28 02:04:08;;;;;;;6.03;3.42;;;8.10;99.90;;;;;;4992573;28;20045;-66
2022/12/28 02:06:34;;;;;;;2.47;1.75;;;8.10;99.90;;;;;;4993520;28;20034;-68
2022/12/28 02:09:32;;;;;;;6.03;3.03;;;8.10;99.90;;;;;;4993190;28;20023;-66
2022/12/28 02:11:59;;;;;;;4.63;3.20;;;8.10;99.90;;;;;;4984125;28;20117;-65
2022/12/28 02:14:25;;;;;;;4.50;2.78;;;8.10;99.90;;;;;;4993580;28;20038;-66
2022/12/28 02:16:53;;;;;;;7.18;3.95;;;8.10;99.90;;;;;;4993666;28;20038;-65
2022/12/28 02:19:29;;;;;;;7.20;4.40;;;8.10;99.90;;;;;;4993351;28;20046;-66
2022/12/28 02:22:07;;;;;;;5.82;3.30;;;8.10;99.90;;;;;;4992964;28;20038;-66
2022/12/28 02:25:05;;;;;;;7.78;3.50;;;8.10;99.90;;;;;;4975321;28;20043;-66
2022/12/28 02:27:46;;;;;;;4.35;1.88;;;8.10;99.90;;;;;;4988315;28;20042;-66
2022/12/28 02:30:13;;;;;;;6.87;4.87;;;8.20;99.90;;;;;;4992348;28;20465;-66
2022/12/28 02:33:08;;;;;;;0.98;0.88;;;8.20;99.90;;;;;;4992692;28;20650;-66
2022/12/28 02:36:02;;;;;;;11.85;4.80;;;8.20;99.90;;;;;;4994039;28;20030;-67
2022/12/28 02:38:38;;;;;;;15.02;2.58;;;8.10;99.90;;;;;;4978048;28;20034;-65
2022/12/28 02:41:08;;;;;;;9.88;3.15;;;8.20;99.90;;;;;;4989653;28;20041;-65
2022/12/28 02:43:34;;;;;;;3.00;2.35;;;8.20;99.90;;;;;;4992978;28;20024;-66
2022/12/28 02:51:39;;;;;;;4.05;2.90;;;8.30;99.90;;;;;;4993413;28;20029;-66
2022/12/28 02:57:38;;;;;;;6.82;4.07;;;8.40;99.90;;;;;;4993553;28;20062;-66
2022/12/28 03:00:09;;;;;;;4.32;2.42;;;8.40;99.90;;;;;;4992008;28;20036;-66
2022/12/28 03:02:57;;;;;;;10.52;5.38;;;8.40;99.90;;;;;;4992480;28;20030;-66
2022/12/28 03:08:27;;;;;;;7.03;3.20;;;8.40;99.90;;;;;;4992008;28;20039;-66
2022/12/28 03:11:22;;;;;;;6.40;3.13;;;8.50;99.90;;;;;;4987608;28;20388;-67
2022/12/28 03:13:57;;;;;;;2.50;1.55;;;8.60;99.90;;;;;;4975126;28;20035;-68
2022/12/28 03:33:27;;;;;;;2.15;1.95;;;8.70;99.90;;;;;;4974153;28;20067;-66
2022/12/28 03:36:07;;;;;;;1.52;1.23;;;8.80;99.90;;;;;;4973365;28;20030;-66
2022/12/28 03:39:07;;;;;;;3.50;2.43;;;8.80;99.90;;;;;;4971044;28;20371;-66
2022/12/28 03:41:37;;;;;;;4.20;2.05;;;8.80;99.90;;;;;;4966312;28;20042;-65
2022/12/28 03:44:25;;;;;;;1.80;1.10;;;8.90;99.90;;;;;;4973179;28;20414;-65
2022/12/28 03:47:01;;;;;;;7.72;2.33;;;8.90;99.90;;;;;;4972895;28;20129;-65
2022/12/28 03:49:27;;;;;;;3.70;1.85;;;8.90;99.90;;;;;;4991177;28;20113;-66
2022/12/28 03:51:54;;;;;;;1.48;1.15;;;8.90;99.90;;;;;;4991690;28;20022;-65
2022/12/28 03:54:21;;;;;;;1.88;1.73;;;8.90;99.90;;;;;;4991277;28;20100;-65
2022/12/28 03:56:49;;;;;;;9.75;2.75;;;8.90;99.90;;;;;;4994056;28;20447;-65
2022/12/28 03:59:16;;;;;;;3.60;1.00;;;9.00;99.90;;;;;;4995174;28;20041;-65
2022/12/28 04:01:46;;;;;;;2.33;2.00;;;8.90;99.90;;;;;;4995435;28;20119;-66
2022/12/28 04:04:12;;;;;;;2.85;1.55;;;9.00;99.90;;;;;;4996612;28;20106;-66
2022/12/28 04:06:38;;;;;;;0.75;0.75;;;8.90;99.90;;;;;;4995668;28;20133;-65
2022/12/28 04:09:05;;;;;;;4.20;2.40;;;8.90;99.90;;;;;;4995063;28;20666;-66
2022/12/28 04:11:35;;;;;;;1.95;1.05;;;8.90;99.90;;;;;;4995379;28;20487;-65
2022/12/28 04:14:05;;;;;;;7.50;1.48;;;8.90;99.90;;;;;;4995127;28;20150;-65
2022/12/28 04:16:34;;;;;;;9.27;5.20;;;8.90;99.90;;;;;;4995535;28;20034;-67
2022/12/28 04:19:00;;;;;;;7.88;2.33;;;9.00;99.90;;;;;;4994721;28;20084;-66
2022/12/28 04:21:28;;;;;;;4.65;1.75;;;9.00;99.90;;;;;;4995523;28;20438;-65
2022/12/28 04:23:54;;;;;;;5.35;1.60;;;9.00;99.90;;;;;;4994770;28;20487;-66
2022/12/28 04:26:21;;;;;;;3.60;2.40;;;9.10;99.90;;;;;;4995053;28;20026;-65
2022/12/28 04:28:50;;;;;;;11.30;2.42;;;9.10;99.90;;;;;;4995149;28;20034;-65
2022/12/28 04:31:31;;;;;;;2.80;1.67;;;9.10;99.90;;;;;;4996550;28;20034;-65
2022/12/28 04:34:22;;;;;;;5.72;1.60;;;9.20;99.90;;;;;;4992713;28;20042;-65
2022/12/28 04:37:01;;;;;;;0.30;0.30;;;9.20;99.90;;;;;;4994887;28;20026;-65
2022/12/28 04:39:27;;;;;;;0.40;0.40;;;9.20;99.90;;;;;;4994052;28;20092;-65
2022/12/28 04:41:53;;;;;;;5.45;1.98;;;9.30;99.90;;;;;;4996273;28;20030;-66
2022/12/28 04:44:19;;;;;;;4.78;1.45;;;9.30;99.90;;;;;;4995781;28;20037;-65
2022/12/28 04:46:45;;;;;;;1.58;1.23;;;9.30;99.90;;;;;;4996207;28;20076;-66
2022/12/28 04:49:10;;;;;;;7.18;1.75;;;9.30;99.90;;;;;;4995404;28;20050;-66
2022/12/28 04:51:36;;;;;;;1.52;1.42;;;9.40;99.90;;;;;;4995743;28;20077;-67
2022/12/28 04:54:03;;;;;;;0.95;0.68;;;9.40;99.90;;;;;;4995774;28;20018;-66
2022/12/28 04:56:28;;;;;;;1.30;0.77;;;9.40;99.90;;;;;;4994710;28;20170;-66
2022/12/28 04:58:56;;;;;;;2.65;1.52;;;9.40;99.90;;;;;;4994554;28;20169;-65
2022/12/28 05:01:22;;;;;;;6.70;1.83;;;9.40;99.90;;;;;;4995351;28;20507;-65
2022/12/28 05:03:50;;;;;;;3.10;0.82;;;9.40;99.90;;;;;;4995752;28;20353;-66
2022/12/28 05:06:18;;;;;;;1.85;1.23;;;9.50;99.90;;;;;;4996468;28;20041;-66
2022/12/28 05:08:47;;;;;;;1.58;1.40;;;9.50;99.90;;;;;;4995589;28;20018;-66
2022/12/28 05:11:18;;;;;;;3.15;1.58;;;9.60;99.90;;;;;;4994219;28;20049;-66
2022/12/28 05:13:44;;;;;;;2.10;1.30;;;9.60;99.90;;;;;;4994076;28;20026;-65
2022/12/28 05:16:13;;;;;;;4.15;1.15;;;9.60;99.90;;;;;;4994935;28;20026;-66
2022/12/28 05:18:39;;;;;;;3.22;1.27;;;9.60;99.90;;;;;;4995181;28;20038;-65
2022/12/28 05:21:06;;;;;;;2.42;0.73;;;9.60;99.90;;;;;;4995082;28;20037;-66
2022/12/28 05:23:34;;;;;;;4.47;2.10;;;9.60;99.90;;;;;;4995407;28;20078;-66
2022/12/28 05:26:00;;;;;;;1.23;0.70;;;9.60;99.90;;;;;;4995193;28;20033;-66
2022/12/28 05:28:26;;;;;;;11.77;4.00;;;9.60;99.90;;;;;;4995263;28;20112;-65
2022/12/28 05:30:57;;;;;;;1.40;0.95;;;9.70;99.90;;;;;;4994591;28;20030;-65
2022/12/28 05:33:23;;;;;;;8.18;1.05;;;9.70;99.90;;;;;;4995394;28;20034;-65
2022/12/28 05:35:49;;;;;;;2.35;0.47;;;9.70;99.90;;;;;;4994966;28;20125;-66
2022/12/28 05:38:14;;;;;;;1.55;1.00;;;9.70;99.90;;;;;;4995331;28;20112;-65
2022/12/28 05:40:40;;;;;;;4.53;1.27;;;9.70;99.90;;;;;;4977516;28;20301;-66
2022/12/28 05:43:06;;;;;;;0.60;0.60;;;9.80;99.90;;;;;;4994805;28;20053;-65
2022/12/28 05:45:32;;;;;;;1.85;1.48;;;9.80;99.90;;;;;;4994661;28;20022;-65
2022/12/28 05:47:58;;;;;;;10.20;1.95;;;9.80;99.90;;;;;;4993010;28;20486;-67
2022/12/28 05:50:24;;;;;;;0.82;0.75;;;9.90;99.90;;;;;;4994537;28;20038;-68
2022/12/28 05:52:49;;;;;;;1.20;1.00;;;9.80;99.90;;;;;;4992996;28;20114;-65
2022/12/28 05:55:15;;;;;;;3.75;1.42;;;9.80;99.90;;;;;;4993313;28;20071;-66
2022/12/28 05:57:41;;;;;;;2.70;1.55;;;9.80;99.90;;;;;;4994762;28;20034;-67
2022/12/28 06:00:08;;;;;;;3.80;1.30;;;9.80;99.90;;;;;;4993604;28;20038;-66
2022/12/28 06:02:39;;;;;;;;;;;9.90;99.90;;;;;;4976725;28;20023;-66
2022/12/28 06:05:06;;;;;;;1.15;0.68;;;9.90;99.90;;;;;;4976107;28;20401;-65
2022/12/28 06:07:32;;;;;;;3.35;1.23;;;9.90;99.90;;;;;;4974209;28;20045;-66
2022/12/28 06:09:57;;;;;;;6.72;1.70;;;10.00;99.90;;;;;;4974592;28;20456;-66
2022/12/28 06:12:23;;;;;;;2.78;1.00;;;9.90;99.90;;;;;;4976841;28;20037;-66
2022/12/28 06:14:49;;;;;;;1.15;0.80;;;9.90;99.90;;;;;;4974743;28;20029;-66
2022/12/28 06:17:15;;;;;;;5.90;1.85;;;9.90;99.90;;;;;;4976830;28;20031;-66
2022/12/28 06:19:40;;;;;;;1.20;0.63;;;9.90;99.90;;;;;;4973225;28;20411;-66
2022/12/28 06:22:06;;;;;;;8.63;1.35;;;9.90;99.90;;;;;;4973740;28;20108;-66
2022/12/28 06:24:32;;;;;;;1.77;1.38;;;9.90;99.90;;;;;;4978678;28;20089;-66
2022/12/28 06:26:58;;;;;;;0.13;0.13;;;9.90;99.90;;;;;;4975498;28;20475;-66
2022/12/28 06:29:24;;;;;;;6.07;0.55;;;9.90;99.90;;;;;;4978625;28;20383;-66
2022/12/28 06:31:50;;;;;;;2.15;1.10;;;9.90;99.90;;;;;;4974891;28;20046;-66
2022/12/28 06:34:16;;;;;;;3.10;1.52;;;9.90;99.90;;;;;;4974016;28;20007;-66
2022/12/28 06:36:45;;;;;;;3.47;1.55;;;10.00;99.90;;;;;;4977000;28;20038;-65
2022/12/28 06:39:12;;;;;;;7.80;1.85;;;9.90;99.90;;;;;;4987869;28;20065;-66
2022/12/28 06:41:39;;;;;;;3.67;0.88;;;9.80;99.90;;;;;;4993553;28;20034;-66
2022/12/28 06:44:07;;;;;;;5.18;1.52;;;9.90;99.90;;;;;;4993702;28;20033;-66
2022/12/28 06:46:33;;;;;;;2.30;1.65;;;9.90;99.90;;;;;;4983659;28;20038;-68
2022/12/28 06:48:59;;;;;;;1.20;1.15;;;9.90;99.90;;;;;;4974487;28;20480;-65
2022/12/28 06:51:29;;;;;;;0.70;0.45;;;10.00;99.90;;;;;;4975519;28;20025;-67
2022/12/28 06:53:56;;;;;;;4.10;1.95;;;10.00;99.90;;;;;;4974275;28;20458;-66
2022/12/28 06:56:23;;;;;;;5.75;1.95;;;10.00;99.90;;;;;;4973786;28;20356;-66
2022/12/28 06:58:50;;;;;;;6.60;1.73;;;9.90;99.90;;;;;;4971050;28;20034;-67
2022/12/28 07:01:20;;;;;;;1.25;1.13;;;9.90;99.90;;;;;;4975418;28;20073;-66
2022/12/28 07:03:47;;;;;;;6.43;2.08;;;9.90;99.90;;;;;;4976079;28;20034;-65
2022/12/28 07:06:15;;;;;;;1.77;0.77;;;9.90;99.90;;;;;;4974198;28;20492;-67
2022/12/28 07:08:41;;;;;;;1.45;1.02;;;9.90;99.90;;;;;;4975097;28;20055;-65
2022/12/28 07:11:13;;;;;;;3.30;1.77;;;9.90;99.90;;;;;;4974752;28;20031;-66
2022/12/28 07:13:40;;;;;;;1.00;0.70;;;9.90;99.90;;;;;;4974956;28;20027;-66
2022/12/28 07:16:17;;;;;;;5.38;1.15;;;10.00;99.90;;;;;;4975816;28;20058;-66
2022/12/28 07:18:44;;;;;;;6.03;2.47;;;10.00;99.90;;;;;;4974079;28;20038;-65
2022/12/28 07:21:12;;;;;;;3.60;1.10;;;10.00;99.90;;;;;;4989257;28;20098;-68
2022/12/28 07:23:38;;;;;;;3.33;1.55;;;10.10;99.90;;;;;;4974880;28;20058;-65
2022/12/28 07:26:10;;;;;;;5.80;1.20;;;10.10;99.90;;;;;;4976105;28;20105;-65
2022/12/28 07:28:41;;;;;;;9.02;1.48;;;10.10;99.90;;;;;;4985302;28;20026;-65
2022/12/28 07:31:08;;;;;;;4.75;1.35;;;10.10;99.90;;;;;;4992865;28;20109;-65
2022/12/28 07:33:35;;;;;;;1.60;0.95;;;10.10;99.90;;;;;;4995968;28;20030;-66
2022/12/28 07:36:02;;;;;;;2.88;2.53;;;10.10;99.90;;;;;;4996940;28;20029;-65
2022/12/28 07:38:28;;;;;;;6.60;1.58;;;10.10;99.90;;;;;;4997551;28;20401;-67
2022/12/28 07:41:04;;;;;;;2.47;1.00;;;10.10;99.90;;;;;;4996245;28;20042;-65
2022/12/28 07:43:30;;;;;;;2.65;0.68;;;10.00;99.90;;;;;;4995976;28;20101;-65
2022/12/28 07:46:18;;;;;;;2.10;1.70;;;10.00;99.90;;;;;;4984502;28;20032;-67
2022/12/28 07:48:45;;;;;;;5.95;1.63;;;10.00;99.90;;;;;;4996615;28;20184;-66
2022/12/28 07:51:14;;;;;;;2.80;0.98;;;10.00;99.90;;;;;;4995369;28;20132;-68
2022/12/28 07:53:42;;;;;;;3.20;1.55;;;10.00;99.90;;;;;;4996553;28;20097;-66
2022/12/28 07:56:09;;;;;;;7.00;1.73;;;10.00;99.90;;;;;;4996383;28;20093;-67
2022/12/28 07:58:35;;;;;;;3.67;1.20;;;10.00;99.90;;;;;;4996470;28;20033;-66
2022/12/28 08:01:12;;;;;;;2.60;0.93;;;10.00;99.90;;;;;;4996125;28;20053;-66
2022/12/28 08:03:39;;;;;;;4.10;1.00;;;10.00;99.90;;;;;;4995599;28;20401;-67
2022/12/28 08:06:12;;;;;;;9.18;1.52;;;10.00;99.90;;;;;;4996278;28;20030;-66
2022/12/28 08:08:41;;;;;;;0.00;0.00;;;10.00;99.90;;;;;;4989278;28;20027;-67
2022/12/28 08:11:10;;;;;;;2.65;1.00;;;10.10;99.90;;;;;;4981206;28;20073;-65
2022/12/28 08:13:38;;;;;;;8.13;1.73;;;10.00;99.90;;;;;;4985429;28;20487;-65
2022/12/28 08:16:04;;;;;;;2.08;1.35;;;9.90;99.90;;;;;;4996113;28;20109;-67
2022/12/28 08:18:30;;;;;;;3.03;1.33;;;9.90;99.90;;;;;;4995062;28;20037;-66
2022/12/28 08:21:04;;;;;;;3.83;1.05;;;10.00;99.90;;;;;;4995550;28;20038;-65
2022/12/28 08:23:30;;;;;;;3.63;1.05;;;10.00;99.90;;;;;;4996564;28;20022;-66
2022/12/28 08:26:13;;;;;;;11.00;4.35;;;10.10;99.90;;;;;;4995658;28;20037;-67
2022/12/28 08:28:42;;;;;;;0.80;0.75;;;10.10;99.90;;;;;;4996227;28;20018;-66
2022/12/28 08:31:13;;;;;;;4.57;0.90;;;10.10;99.90;;;;;;4995919;28;20125;-65
2022/12/28 08:33:40;;;;;;;9.93;2.55;;;10.10;99.90;;;;;;4994807;28;20727;-66
2022/12/28 08:36:08;;;;;;;5.97;2.05;;;10.10;99.90;;;;;;4995867;28;20066;-64
2022/12/28 08:38:35;;;;;;;4.38;1.10;;;10.10;99.90;;;;;;4995223;28;20033;-65
2022/12/28 08:41:03;;;;;;;1.50;0.68;;;10.10;99.90;;;;;;4995625;28;20030;-67
2022/12/28 08:43:30;;;;;;;5.88;1.40;;;10.10;99.90;;;;;;4994214;28;20046;-64
2022/12/28 08:46:01;;;;;;;6.00;1.40;;;10.10;99.90;;;;;;4995604;28;20487;-64
2022/12/28 08:48:27;;;;;;;6.00;1.30;;;10.10;99.90;;;;;;4992823;28;20026;-68
2022/12/28 08:50:54;;;;;;;13.35;1.70;;;10.10;99.90;;;;;;4993318;28;20053;-65
2022/12/28 08:53:23;;;;;;;2.63;1.23;;;10.10;99.90;;;;;;4995398;28;20030;-65
2022/12/28 08:55:50;;;;;;;3.70;0.77;;;10.10;99.90;;;;;;4995448;28;20026;-64
2022/12/28 08:58:17;;;;;;;3.85;2.03;;;10.00;99.90;;;;;;4995880;28;20026;-65
2022/12/28 09:00:43;;;;;;;1.52;1.10;;;10.00;99.90;;;;;;4985069;28;20053;-65
2022/12/28 09:03:09;;;;;;;6.53;1.70;;;10.00;99.90;;;;;;4994859;28;20027;-67
2022/12/28 09:05:38;;;;;;;1.85;0.63;;;10.00;99.90;;;;;;4995503;28;20067;-66
2022/12/28 09:08:04;;;;;;;16.08;0.98;;;10.00;99.90;;;;;;4995682;28;20101;-65
2022/12/28 09:10:30;;;;;;;3.70;1.23;;;10.00;99.90;;;;;;4994987;28;20077;-65
2022/12/28 09:12:56;;;;;;;0.93;0.77;;;10.00;99.90;;;;;;4995612;28;20026;-66
2022/12/28 09:15:23;;;;;;;8.77;2.75;;;9.90;99.90;;;;;;4995617;28;20031;-66
2022/12/28 09:17:49;;;;;;;0.47;0.38;;;9.90;99.90;;;;;;4995670;28;20026;-66
2022/12/28 09:20:15;;;;;;;1.45;1.08;;;9.80;99.90;;;;;;4995376;28;20513;-65
2022/12/28 09:22:41;;;;;;;2.83;1.23;;;9.80;99.90;;;;;;4995337;28;20088;-68
2022/12/28 09:25:07;;;;;;;0.10;0.10;;;9.80;99.90;;;;;;4995466;28;20132;-66
2022/12/28 09:27:33;;;;;;;1.35;0.93;;;9.60;99.90;;;;;;4995402;28;20494;-67
2022/12/28 09:29:58;;;;;;;5.95;1.90;;;9.60;99.90;;;;;;4995477;28;20114;-66
2022/12/28 09:32:24;;;;;;;0.68;0.65;;;9.60;99.90;;;;;;4995289;28;20060;-66
2022/12/28 09:34:51;;;;;;;1.10;1.00;;;9.60;99.90;;;;;;4995151;28;20066;-65
2022/12/28 09:37:17;;;;;;;2.13;0.98;;;9.60;99.90;;;;;;4995160;28;20456;-65
2022/12/28 09:39:42;;;;;;;2.80;1.15;;;9.60;99.90;;;;;;4994881;28;20085;-65
2022/12/28 09:42:17;;;;;;;0.68;0.68;;;9.70;99.90;;;;;;4994982;28;20038;-65
2022/12/28 09:44:49;;;;;;;1.90;0.82;;;9.70;99.90;;;;;;4994977;28;20399;-65
2022/12/28 09:47:18;;;;;;;;;;;9.70;99.90;;;;;;4995294;28;20023;-65
2022/12/28 09:49:51;;;;;;;0.65;0.65;;;9.60;99.90;;;;;;4998856;28;19917;-65
2022/12/28 09:52:31;;;;;;;7.03;1.08;;;9.70;99.90;;;;;;5002614;28;20022;-65
2022/12/28 09:55:05;;;;;;;0.70;0.70;;;9.70;99.90;;;;;;4993972;28;20387;-66
2022/12/28 09:57:36;;;;;;;0.40;0.35;;;9.70;99.90;;;;;;4993689;28;20109;-65
2022/12/28 10:00:04;;;;;;;1.02;0.95;;;9.80;99.90;;;;;;4994508;28;20164;-66
2022/12/28 10:02:36;;;;;;;0.43;0.40;;;9.80;99.90;;;;;;4994658;28;20117;-67
2022/12/28 10:05:03;;;;;;;4.72;1.90;;;9.80;99.90;;;;;;4994644;28;20033;-65
2022/12/28 10:07:29;;;;;;;4.28;1.95;;;9.70;99.90;;;;;;4993119;28;20423;-65
2022/12/28 10:09:55;;;;;;;9.38;1.73;;;9.60;99.90;;;;;;4993156;28;20026;-65
2022/12/28 10:12:23;;;;;;;1.30;0.73;;;9.60;99.90;;;;;;4994194;28;20018;-65
2022/12/28 10:14:50;;;;;;;9.05;1.80;;;9.60;99.90;;;;;;4994686;28;20066;-65
2022/12/28 10:17:21;;;;;;;3.15;1.52;;;9.60;99.90;;;;;;4994205;28;20027;-65
2022/12/28 10:19:47;;;;;;;5.65;1.75;;;9.60;99.90;;;;;;4994331;28;20046;-66
2022/12/28 10:22:17;;;;;;;3.22;1.83;;;9.60;99.90;;;;;;4993963;28;20034;-65
2022/12/28 10:24:43;;;;;;;3.33;1.65;;;9.70;99.90;;;;;;4993061;28;20037;-66
2022/12/28 10:27:30;;;;;;;2.17;1.35;;;9.70;99.90;;;;;;4994359;28;20100;-65
2022/12/28 10:30:00;;;;;;;2.05;1.02;;;9.70;99.90;;;;;;4993056;28;20414;-65
2022/12/28 10:32:25;;;;;;;0.50;0.50;;;9.70;99.90;;;;;;4994006;28;20035;-67
2022/12/28 10:34:56;;;;;;;3.45;2.50;;;9.70;99.90;;;;;;4999323;28;20041;-65
2022/12/28 10:37:24;;;;;;;4.10;1.83;;;9.70;99.90;;;;;;5000442;28;20042;-65
2022/12/28 10:39:58;;;;;;;0.13;0.13;;;9.70;99.90;;;;;;5007509;28;20510;-66
2022/12/28 10:42:35;;;;;;;3.83;1.98;;;9.70;99.90;;;;;;4994036;28;20479;-65
2022/12/28 10:45:16;;;;;;;12.68;2.20;;;9.60;99.90;;;;;;4994153;28;20418;-66
2022/12/28 10:47:46;;;;;;;2.00;0.75;;;9.70;99.90;;;;;;4993598;28;20410;-66
2022/12/28 10:50:39;;;;;;;2.15;0.70;;;9.70;99.90;;;;;;4993591;28;20538;-66
2022/12/28 10:53:25;;;;;;;1.85;0.93;;;9.80;99.90;;;;;;4993828;28;20062;-66
2022/12/28 10:56:05;;;;;;;4.70;1.42;;;9.80;99.90;;;;;;4993470;28;20435;-65
2022/12/28 10:58:32;;;;;;;19.42;1.08;;;9.70;99.90;;;;;;4993459;28;20037;-65
2022/12/28 11:01:05;;;;;;;3.00;1.05;;;9.80;99.90;;;;;;4992398;28;20125;-66
2022/12/28 11:03:34;;;;;;;2.42;0.65;;;9.80;99.90;;;;;;4993495;28;20026;-66
2022/12/28 11:06:17;;;;;;;5.15;1.08;;;9.80;99.90;;;;;;4993134;28;20137;-65
2022/12/28 11:08:45;;;;;;;12.55;1.90;;;9.80;99.90;;;;;;4991963;28;20030;-66
2022/12/28 11:11:22;;;;;;;2.50;1.98;;;9.70;99.90;;;;;;4993399;28;20035;-66
2022/12/28 11:14:11;;;;;;;6.63;5.15;;;9.80;99.90;;;;;;4992140;28;20481;-66
2022/12/28 11:16:39;;;;;;;3.70;1.80;;;9.90;99.90;;;;;;4993467;28;20472;-66
2022/12/28 11:19:05;;;;;;;11.60;0.95;;;9.90;99.90;;;;;;4992689;28;20031;-66
2022/12/28 11:21:33;;;;;;;8.93;1.42;;;9.90;99.90;;;;;;4993323;28;20049;-66
2022/12/28 11:23:59;;;;;;;4.40;0.70;;;9.90;99.90;;;;;;4993238;28;20033;-66
2022/12/28 11:26:28;;;;;;;0.68;0.68;;;9.90;99.90;;;;;;4993562;28;20511;-65
2022/12/28 11:28:54;;;;;;;2.90;1.15;;;9.90;99.90;;;;;;4993050;28;20101;-67
2022/12/28 11:31:36;;;;;;;8.00;0.90;;;10.00;99.90;;;;;;4993227;28;20108;-66
2022/12/28 11:34:05;;;;;;;3.80;1.15;;;10.00;99.90;;;;;;4992885;28;20081;-67
2022/12/28 11:36:39;;;;;;;12.30;1.95;;;10.10;99.90;;;;;;4993432;28;20407;-66
2022/12/28 11:39:23;;;;;;;1.17;0.65;;;10.10;99.90;;;;;;4991921;28;20120;-65
2022/12/28 11:41:51;;;;;;;2.38;0.60;;;10.20;99.90;;;;;;4977297;28;20158;-66
2022/12/28 11:44:47;;;;;;;13.30;2.63;;;10.20;99.90;;;;;;4987697;28;20030;-66
2022/12/28 11:47:16;;;;;;;9.25;3.45;;;10.20;99.90;;;;;;4992145;28;20038;-65
2022/12/28 11:49:44;;;;;;;2.90;1.48;;;10.20;99.90;;;;;;4992309;28;20499;-65
2022/12/28 11:52:15;;;;;;;6.75;1.38;;;10.20;99.90;;;;;;4993156;28;20100;-66
2022/12/28 11:54:52;;;;;;;;;;;10.20;99.90;;;;;;4992029;28;20038;-65
2022/12/28 11:57:41;;;;;;;4.65;1.80;;;10.20;99.90;;;;;;4993113;28;19910;-67
2022/12/28 12:00:19;;;;;;;2.22;0.55;;;10.30;99.90;;;;;;4992759;28;20066;-65
2022/12/28 12:02:51;;;;;;;0.60;0.50;;;10.30;99.90;;;;;;4991280;28;20041;-65
2022/12/28 12:05:35;;;;;;;5.85;1.48;;;10.30;99.90;;;;;;4992886;28;20030;-67
2022/12/28 12:08:11;;;;;;;4.97;1.50;;;10.40;99.90;;;;;;4991537;28;20034;-66
2022/12/28 12:10:40;;;;;;;4.57;1.08;;;10.40;99.90;;;;;;4980375;28;20033;-65
2022/12/28 12:13:24;;;;;;;7.38;1.00;;;10.40;99.90;;;;;;4992740;28;20368;-67
2022/12/28 12:16:19;;;;;;;5.72;1.73;;;10.40;99.90;;;;;;4991541;28;20110;-68
2022/12/28 12:18:57;;;;;;;6.22;1.35;;;10.50;99.90;;;;;;4996315;28;20068;-66
2022/12/28 12:21:40;;;;;;;2.55;1.23;;;10.40;99.90;;;;;;5003752;28;20133;-68
2022/12/28 12:24:17;;;;;;;6.63;1.73;;;10.40;99.90;;;;;;4999548;28;20077;-67
2022/12/28 12:26:57;;;;;;;5.75;1.30;;;10.40;99.90;;;;;;4996489;28;20045;-65
2022/12/28 12:29:48;;;;;;;1.77;1.17;;;10.40;99.90;;;;;;4996219;28;20033;-67
2022/12/28 12:32:16;;;;;;;8.57;0.63;;;10.40;99.90;;;;;;4996112;28;20065;-66
2022/12/28 12:34:50;;;;;;;7.72;1.90;;;10.50;99.90;;;;;;4996003;28;20034;-66
2022/12/28 12:37:37;;;;;;;4.68;2.10;;;10.40;99.90;;;;;;4996391;28;20093;-65
2022/12/28 12:40:40;;;;;;;9.20;2.85;;;10.50;99.90;;;;;;4984120;28;20112;-66
2022/12/28 12:43:25;;;;;;;10.68;3.00;;;10.50;99.90;;;;;;4995983;28;20026;-66
2022/12/28 12:46:09;;;;;;;0.82;0.82;;;10.50;99.90;;;;;;4995498;28;20046;-66
2022/12/28 12:48:41;;;;;;;2.60;1.45;;;10.50;99.90;;;;;;4984309;28;20050;-66
2022/12/28 12:51:34;;;;;;;1.50;0.73;;;10.40;99.90;;;;;;4995606;28;20034;-66
2022/12/28 12:54:32;;;;;;;13.35;2.00;;;10.50;99.90;;;;;;4995735;28;20030;-67
2022/12/28 12:57:12;;;;;;;3.08;1.38;;;10.60;99.90;;;;;;4987716;28;20046;-66
2022/12/28 13:00:09;;;;;;;1.40;1.30;;;10.60;99.90;;;;;;4995693;28;20130;-65
2022/12/28 13:03:07;;;;;;;2.83;0.95;;;10.70;99.90;;;;;;4996020;28;20045;-67
2022/12/28 13:05:38;;;;;;;9.93;1.83;;;10.70;99.90;;;;;;4994536;28;20114;-66
2022/12/28 13:08:04;;;;;;;5.15;1.40;;;10.70;99.90;;;;;;4995521;28;20065;-65
2022/12/28 13:10:32;;;;;;;1.88;0.32;;;10.70;99.90;;;;;;4995350;28;20022;-66
2022/12/28 13:13:00;;;;;;;9.48;1.35;;;10.70;99.90;;;;;;4994412;28;20046;-66
2022/12/28 13:15:26;;;;;;;6.35;1.38;;;10.70;99.90;;;;;;4995218;28;20030;-65
2022/12/28 13:18:05;;;;;;;4.68;0.77;;;10.70;99.90;;;;;;4995814;28;20027;-67
2022/12/28 13:20:32;;;;;;;5.75;1.50;;;10.70;99.90;;;;;;4994118;28;20050;-65
2022/12/28 13:22:58;;;;;;;10.43;1.90;;;10.70;99.90;;;;;;4995625;28;20026;-65
2022/12/28 13:25:28;;;;;;;5.85;2.00;;;10.80;99.90;;;;;;4995308;28;20037;-65
2022/12/28 13:27:56;;;;;;;5.60;1.65;;;10.80;99.90;;;;;;4993537;28;20042;-66
2022/12/28 13:30:24;;;;;;;5.60;1.00;;;10.80;99.90;;;;;;4993498;28;20033;-67
2022/12/28 13:33:01;;;;;;;0.90;0.70;;;10.80;99.90;;;;;;4994306;28;20058;-66
2022/12/28 13:35:30;;;;;;;0.30;0.30;;;10.80;99.90;;;;;;4995291;28;20030;-68
2022/12/28 13:38:14;;;;;;;6.07;1.60;;;10.90;99.90;;;;;;4993992;28;20022;-65
2022/12/28 13:40:49;;;;;;;15.80;0.60;;;10.80;99.90;;;;;;4994806;28;20049;-66